ジャカルタ の空港の天気 - METARとTAF

スカルノハッタ国際空港 ( WIII / CGK ) - インドネシア バンテン州、Cengkareng ( ジャカルタ近郊)
飛行場実況気象(Metar)
観測時間01/22 00:30 WIB (01/21 17:30 UTC)
風向・風速西北西 8m/s
視程7000m
天気現象
少しの雲 雲底高度 610m
気温26℃
湿度84%
気圧1007hPa
METARWIII 211730Z 29015KT 7000 FEW020 26/23 Q1007 NOSIG
過去の天気等 Google飛行場航空写真 Wunderground天気予報

過去48時間のMETAR

飛行場予報(TAF)
発表時間: 1/22 00:00 WIB (1/21 17:00 UTC)
予報対象時間: 22日1時 WIB ~ 23日7時 WIB
風向・風速西南西 3m/s
視程5,000m
天気現象煙霧
全天の4割程度の雲 雲底高度 610m
22日1時 WIB ~ 22日5時 WIB に一時的に
風向・風速西 5m/s
視程4,000m
天気現象
全天の8割程度の雲 雲底高度 610m
22日8時 WIB ~ 22日10時 WIB に徐々に
風向・風速西 5m/s 瞬間風速 10m/s
視程9,000m
天気現象運行に影響にある天気現象が終了
TAF WIII 211700Z 2118/2224 25006KT 5000 HZ SCT020
TEMPO 2118/2122 26010KT 4000 RA BKN020
BECMG 2201/2203 27010G20KT 9000 NSW